Terminal Aerodrome Forecast
Issued by NWS

Home | Current Version | Previous Version | Text Only | Print | Product List | Glossary On
Versions: 1 2 3 4 5 6 7 8 9 10 11 12 13 14 15 16 17 18 19 20 21 22 23 24 25 26 27 28
000
FTUS43 KMKX 301120
TAFENW
TAF
KENW 301120Z 3012/0112 06015G24KT 2SM -DZ BR OVC004
     FM301400 05015G23KT 2SM RA BR OVC004
     FM010000 04013KT 3SM SHRA BR VCTS OVC003CB
     FM010600 08009KT 2SM -SHRA BR OVC003 WS020/18030KT
     FM010800 21008KT 3SM BR VCSH BKN008
     FM011000 22009KT P6SM BKN025=

USA.gov is the U.S. government's official web portal to all federal, state and local government web resources and services.